sensor_id;sensor_type;location;lat;lon;timestamp;temperature;humidity
24384;DHT22;12504;52.870;8.798;2022-10-31T00:01:17;13.10;99.90
24384;DHT22;12504;52.870;8.798;2022-10-31T00:03:43;13.10;99.90
24384;DHT22;12504;52.870;8.798;2022-10-31T00:06:09;13.10;99.90
24384;DHT22;12504;52.870;8.798;2022-10-31T00:08:34;13.10;99.90
24384;DHT22;12504;52.870;8.798;2022-10-31T00:11:00;13.10;99.90
24384;DHT22;12504;52.870;8.798;2022-10-31T00:13:25;13.10;99.90
24384;DHT22;12504;52.870;8.798;2022-10-31T00:15:51;13.20;99.90
24384;DHT22;12504;52.870;8.798;2022-10-31T00:18:17;13.10;99.90
24384;DHT22;12504;52.870;8.798;2022-10-31T00:20:42;13.20;99.90
24384;DHT22;12504;52.870;8.798;2022-10-31T00:23:08;13.20;99.90
24384;DHT22;12504;52.870;8.798;2022-10-31T00:25:35;13.20;99.90
24384;DHT22;12504;52.870;8.798;2022-10-31T00:28:01;13.30;99.90
24384;DHT22;12504;52.870;8.798;2022-10-31T00:30:27;13.30;99.90
24384;DHT22;12504;52.870;8.798;2022-10-31T00:32:53;13.30;99.90
24384;DHT22;12504;52.870;8.798;2022-10-31T00:35:19;13.30;99.90
24384;DHT22;12504;52.870;8.798;2022-10-31T00:37:44;13.40;99.90
24384;DHT22;12504;52.870;8.798;2022-10-31T00:40:15;13.30;99.90
24384;DHT22;12504;52.870;8.798;2022-10-31T00:42:42;13.30;99.90
24384;DHT22;12504;52.870;8.798;2022-10-31T00:45:08;13.20;99.90
24384;DHT22;12504;52.870;8.798;2022-10-31T00:47:34;13.20;99.90
24384;DHT22;12504;52.870;8.798;2022-10-31T00:50:00;13.20;99.90
24384;DHT22;12504;52.870;8.798;2022-10-31T00:52:25;13.20;99.90
24384;DHT22;12504;52.870;8.798;2022-10-31T00:54:51;13.20;99.90
24384;DHT22;12504;52.870;8.798;2022-10-31T00:57:17;13.10;99.90
24384;DHT22;12504;52.870;8.798;2022-10-31T00:59:42;13.10;99.90
24384;DHT22;12504;52.870;8.798;2022-10-31T01:02:08;13.00;99.90
24384;DHT22;12504;52.870;8.798;2022-10-31T01:04:33;13.10;99.90
24384;DHT22;12504;52.870;8.798;2022-10-31T01:06:59;13.10;99.90
24384;DHT22;12504;52.870;8.798;2022-10-31T01:09:25;13.10;99.90
24384;DHT22;12504;52.870;8.798;2022-10-31T01:11:51;13.00;99.90
24384;DHT22;12504;52.870;8.798;2022-10-31T01:14:16;13.00;99.90
24384;DHT22;12504;52.870;8.798;2022-10-31T01:16:42;13.00;99.90
24384;DHT22;12504;52.870;8.798;2022-10-31T01:19:08;13.10;99.90
24384;DHT22;12504;52.870;8.798;2022-10-31T01:21:33;13.10;99.90
24384;DHT22;12504;52.870;8.798;2022-10-31T01:23:59;13.10;99.90
24384;DHT22;12504;52.870;8.798;2022-10-31T01:26:25;13.00;99.90
24384;DHT22;12504;52.870;8.798;2022-10-31T01:28:53;13.00;99.90
24384;DHT22;12504;52.870;8.798;2022-10-31T01:31:20;12.90;99.90
24384;DHT22;12504;52.870;8.798;2022-10-31T01:33:46;12.90;99.90
24384;DHT22;12504;52.870;8.798;2022-10-31T01:36:19;12.90;99.90
24384;DHT22;12504;52.870;8.798;2022-10-31T01:38:48;12.90;99.90
24384;DHT22;12504;52.870;8.798;2022-10-31T01:41:15;12.80;99.90
24384;DHT22;12504;52.870;8.798;2022-10-31T01:43:42;12.80;99.90
24384;DHT22;12504;52.870;8.798;2022-10-31T01:46:07;12.80;99.90
24384;DHT22;12504;52.870;8.798;2022-10-31T01:48:33;12.80;99.90
24384;DHT22;12504;52.870;8.798;2022-10-31T01:50:59;12.80;99.90
24384;DHT22;12504;52.870;8.798;2022-10-31T01:53:25;12.70;99.90
24384;DHT22;12504;52.870;8.798;2022-10-31T01:55:51;12.80;99.90
24384;DHT22;12504;52.870;8.798;2022-10-31T01:58:18;12.80;99.90
24384;DHT22;12504;52.870;8.798;2022-10-31T02:00:45;12.80;99.90
24384;DHT22;12504;52.870;8.798;2022-10-31T02:03:13;12.70;99.90
24384;DHT22;12504;52.870;8.798;2022-10-31T02:05:38;12.70;99.90
24384;DHT22;12504;52.870;8.798;2022-10-31T02:08:06;12.70;99.90
24384;DHT22;12504;52.870;8.798;2022-10-31T02:10:33;12.70;99.90
24384;DHT22;12504;52.870;8.798;2022-10-31T02:13:00;12.70;99.90
24384;DHT22;12504;52.870;8.798;2022-10-31T02:15:27;12.70;99.90
24384;DHT22;12504;52.870;8.798;2022-10-31T02:17:53;12.70;99.90
24384;DHT22;12504;52.870;8.798;2022-10-31T02:20:20;12.70;99.90
24384;DHT22;12504;52.870;8.798;2022-10-31T02:30:40;12.70;99.90
24384;DHT22;12504;52.870;8.798;2022-10-31T02:38:19;12.70;99.90
24384;DHT22;12504;52.870;8.798;2022-10-31T02:43:35;12.60;99.90
24384;DHT22;12504;52.870;8.798;2022-10-31T02:46:10;12.60;99.90
24384;DHT22;12504;52.870;8.798;2022-10-31T02:48:37;12.50;99.90
24384;DHT22;12504;52.870;8.798;2022-10-31T02:51:04;12.40;99.90
24384;DHT22;12504;52.870;8.798;2022-10-31T02:53:33;12.30;99.90
24384;DHT22;12504;52.870;8.798;2022-10-31T02:56:13;12.30;99.90
24384;DHT22;12504;52.870;8.798;2022-10-31T02:58:43;12.20;99.90
24384;DHT22;12504;52.870;8.798;2022-10-31T03:01:17;12.20;99.90
24384;DHT22;12504;52.870;8.798;2022-10-31T03:12:14;12.00;99.90
24384;DHT22;12504;52.870;8.798;2022-10-31T03:14:47;12.00;99.90
24384;DHT22;12504;52.870;8.798;2022-10-31T03:17:18;11.90;99.90
24384;DHT22;12504;52.870;8.798;2022-10-31T03:19:47;11.90;99.90
24384;DHT22;12504;52.870;8.798;2022-10-31T03:22:21;11.90;99.90
24384;DHT22;12504;52.870;8.798;2022-10-31T03:24:47;11.80;99.90
24384;DHT22;12504;52.870;8.798;2022-10-31T03:27:19;11.70;99.90
24384;DHT22;12504;52.870;8.798;2022-10-31T03:29:47;11.60;99.90
24384;DHT22;12504;52.870;8.798;2022-10-31T03:32:18;11.60;99.90
24384;DHT22;12504;52.870;8.798;2022-10-31T03:34:45;11.60;99.90
24384;DHT22;12504;52.870;8.798;2022-10-31T03:37:14;11.60;99.90
24384;DHT22;12504;52.870;8.798;2022-10-31T03:39:42;11.60;99.90
24384;DHT22;12504;52.870;8.798;2022-10-31T03:42:09;11.50;99.90
24384;DHT22;12504;52.870;8.798;2022-10-31T03:44:36;11.50;99.90
24384;DHT22;12504;52.870;8.798;2022-10-31T03:47:03;11.40;99.90
24384;DHT22;12504;52.870;8.798;2022-10-31T03:49:29;11.40;99.90
24384;DHT22;12504;52.870;8.798;2022-10-31T03:51:58;11.40;99.90
24384;DHT22;12504;52.870;8.798;2022-10-31T03:57:37;11.20;99.90
24384;DHT22;12504;52.870;8.798;2022-10-31T04:00:00;11.20;99.90
24384;DHT22;12504;52.870;8.798;2022-10-31T04:02:28;11.10;99.90
24384;DHT22;12504;52.870;8.798;2022-10-31T04:54:49;10.10;99.90
24384;DHT22;12504;52.870;8.798;2022-10-31T04:57:42;10.20;99.90
24384;DHT22;12504;52.870;8.798;2022-10-31T05:00:08;10.20;99.90
24384;DHT22;12504;52.870;8.798;2022-10-31T05:02:34;10.10;99.90
24384;DHT22;12504;52.870;8.798;2022-10-31T05:04:59;10.10;99.90
24384;DHT22;12504;52.870;8.798;2022-10-31T05:07:25;10.00;99.90
24384;DHT22;12504;52.870;8.798;2022-10-31T05:09:51;9.90;99.90
24384;DHT22;12504;52.870;8.798;2022-10-31T05:12:18;9.90;99.90
24384;DHT22;12504;52.870;8.798;2022-10-31T05:15:13;9.90;99.90
24384;DHT22;12504;52.870;8.798;2022-10-31T05:18:11;9.90;99.90
24384;DHT22;12504;52.870;8.798;2022-10-31T05:20:55;9.90;99.90
24384;DHT22;12504;52.870;8.798;2022-10-31T05:23:30;9.90;99.90
24384;DHT22;12504;52.870;8.798;2022-10-31T05:25:55;9.80;99.90
24384;DHT22;12504;52.870;8.798;2022-10-31T05:28:21;9.80;99.90
24384;DHT22;12504;52.870;8.798;2022-10-31T05:30:47;9.80;99.90
24384;DHT22;12504;52.870;8.798;2022-10-31T05:33:14;9.80;99.90
24384;DHT22;12504;52.870;8.798;2022-10-31T05:35:59;9.80;99.90
24384;DHT22;12504;52.870;8.798;2022-10-31T05:38:54;9.70;99.90
24384;DHT22;12504;52.870;8.798;2022-10-31T05:41:24;9.70;99.90
24384;DHT22;12504;52.870;8.798;2022-10-31T05:43:52;9.70;99.90
24384;DHT22;12504;52.870;8.798;2022-10-31T05:46:22;9.60;99.90
24384;DHT22;12504;52.870;8.798;2022-10-31T05:49:16;9.60;99.90
24384;DHT22;12504;52.870;8.798;2022-10-31T05:51:45;9.60;99.90
24384;DHT22;12504;52.870;8.798;2022-10-31T05:54:11;9.50;99.90
24384;DHT22;12504;52.870;8.798;2022-10-31T05:56:39;9.50;99.90
24384;DHT22;12504;52.870;8.798;2022-10-31T05:59:04;9.50;99.90
24384;DHT22;12504;52.870;8.798;2022-10-31T06:01:30;9.40;99.90
24384;DHT22;12504;52.870;8.798;2022-10-31T06:04:01;9.40;99.90
24384;DHT22;12504;52.870;8.798;2022-10-31T06:06:27;9.40;99.90
24384;DHT22;12504;52.870;8.798;2022-10-31T06:08:52;9.40;99.90
24384;DHT22;12504;52.870;8.798;2022-10-31T06:11:21;9.40;99.90
24384;DHT22;12504;52.870;8.798;2022-10-31T06:14:02;9.50;99.90
24384;DHT22;12504;52.870;8.798;2022-10-31T06:16:48;9.50;99.90
24384;DHT22;12504;52.870;8.798;2022-10-31T06:19:32;9.50;99.90
24384;DHT22;12504;52.870;8.798;2022-10-31T06:21:58;9.50;99.90
24384;DHT22;12504;52.870;8.798;2022-10-31T06:24:24;9.50;99.90
24384;DHT22;12504;52.870;8.798;2022-10-31T06:26:52;9.50;99.90
24384;DHT22;12504;52.870;8.798;2022-10-31T06:29:18;9.50;99.90
24384;DHT22;12504;52.870;8.798;2022-10-31T06:31:59;9.50;99.90
24384;DHT22;12504;52.870;8.798;2022-10-31T06:34:27;9.60;99.90
24384;DHT22;12504;52.870;8.798;2022-10-31T06:36:52;9.60;99.90
24384;DHT22;12504;52.870;8.798;2022-10-31T06:39:21;9.70;99.90
24384;DHT22;12504;52.870;8.798;2022-10-31T06:41:47;9.70;99.90
24384;DHT22;12504;52.870;8.798;2022-10-31T06:44:14;9.80;99.90
24384;DHT22;12504;52.870;8.798;2022-10-31T06:46:58;9.80;99.90
24384;DHT22;12504;52.870;8.798;2022-10-31T06:50:03;9.90;99.90
24384;DHT22;12504;52.870;8.798;2022-10-31T06:52:29;10.00;99.90
24384;DHT22;12504;52.870;8.798;2022-10-31T06:54:55;10.00;99.90
24384;DHT22;12504;52.870;8.798;2022-10-31T06:57:22;10.10;99.90
24384;DHT22;12504;52.870;8.798;2022-10-31T06:59:48;10.10;99.90
24384;DHT22;12504;52.870;8.798;2022-10-31T07:02:37;10.10;99.90
24384;DHT22;12504;52.870;8.798;2022-10-31T07:05:03;10.10;99.90
24384;DHT22;12504;52.870;8.798;2022-10-31T07:07:29;10.10;99.90
24384;DHT22;12504;52.870;8.798;2022-10-31T07:09:54;10.20;99.90
24384;DHT22;12504;52.870;8.798;2022-10-31T07:12:34;10.20;99.90
24384;DHT22;12504;52.870;8.798;2022-10-31T07:15:00;10.30;99.90
24384;DHT22;12504;52.870;8.798;2022-10-31T07:17:26;10.30;99.90
24384;DHT22;12504;52.870;8.798;2022-10-31T07:19:55;10.40;99.90
24384;DHT22;12504;52.870;8.798;2022-10-31T07:22:20;10.40;99.90
24384;DHT22;12504;52.870;8.798;2022-10-31T07:24:46;10.40;99.90
24384;DHT22;12504;52.870;8.798;2022-10-31T07:27:40;10.30;99.90
24384;DHT22;12504;52.870;8.798;2022-10-31T07:30:09;10.20;99.90
24384;DHT22;12504;52.870;8.798;2022-10-31T07:32:41;10.10;99.90
24384;DHT22;12504;52.870;8.798;2022-10-31T07:35:07;10.10;99.90
24384;DHT22;12504;52.870;8.798;2022-10-31T07:37:44;10.00;99.90
24384;DHT22;12504;52.870;8.798;2022-10-31T07:40:10;10.10;99.90
24384;DHT22;12504;52.870;8.798;2022-10-31T07:42:41;10.00;99.90
24384;DHT22;12504;52.870;8.798;2022-10-31T07:45:26;10.10;99.90
24384;DHT22;12504;52.870;8.798;2022-10-31T07:48:27;10.20;99.90
24384;DHT22;12504;52.870;8.798;2022-10-31T07:51:18;10.30;99.90
24384;DHT22;12504;52.870;8.798;2022-10-31T07:54:03;10.50;99.90
24384;DHT22;12504;52.870;8.798;2022-10-31T07:56:31;10.60;99.90
24384;DHT22;12504;52.870;8.798;2022-10-31T07:58:56;10.80;99.90
24384;DHT22;12504;52.870;8.798;2022-10-31T08:01:22;10.80;99.90
24384;DHT22;12504;52.870;8.798;2022-10-31T08:04:08;11.00;99.90
24384;DHT22;12504;52.870;8.798;2022-10-31T08:06:52;11.10;99.90
24384;DHT22;12504;52.870;8.798;2022-10-31T08:09:32;11.20;99.90
24384;DHT22;12504;52.870;8.798;2022-10-31T08:12:02;11.40;99.90
24384;DHT22;12504;52.870;8.798;2022-10-31T08:14:29;11.50;99.90
24384;DHT22;12504;52.870;8.798;2022-10-31T08:16:56;11.70;99.90
24384;DHT22;12504;52.870;8.798;2022-10-31T08:19:24;11.80;99.90
24384;DHT22;12504;52.870;8.798;2022-10-31T08:21:53;11.90;99.90
24384;DHT22;12504;52.870;8.798;2022-10-31T08:24:21;11.90;99.90
24384;DHT22;12504;52.870;8.798;2022-10-31T08:26:47;11.90;99.90
24384;DHT22;12504;52.870;8.798;2022-10-31T08:29:12;11.90;99.90
24384;DHT22;12504;52.870;8.798;2022-10-31T08:31:40;11.90;99.90
24384;DHT22;12504;52.870;8.798;2022-10-31T08:34:25;12.00;99.90
24384;DHT22;12504;52.870;8.798;2022-10-31T08:37:09;12.10;99.90
24384;DHT22;12504;52.870;8.798;2022-10-31T08:39:40;12.10;99.90
24384;DHT22;12504;52.870;8.798;2022-10-31T08:42:05;12.10;99.90
24384;DHT22;12504;52.870;8.798;2022-10-31T08:44:31;12.20;99.90
24384;DHT22;12504;52.870;8.798;2022-10-31T08:46:57;12.20;99.90
24384;DHT22;12504;52.870;8.798;2022-10-31T08:49:23;12.30;99.90
24384;DHT22;12504;52.870;8.798;2022-10-31T08:51:48;12.50;99.90
24384;DHT22;12504;52.870;8.798;2022-10-31T08:54:14;12.60;99.90
24384;DHT22;12504;52.870;8.798;2022-10-31T08:56:55;12.70;99.90
24384;DHT22;12504;52.870;8.798;2022-10-31T08:59:32;12.70;99.90
24384;DHT22;12504;52.870;8.798;2022-10-31T09:02:17;12.70;99.90
24384;DHT22;12504;52.870;8.798;2022-10-31T09:04:42;12.70;99.90
24384;DHT22;12504;52.870;8.798;2022-10-31T09:07:08;12.80;99.90
24384;DHT22;12504;52.870;8.798;2022-10-31T09:09:34;12.90;99.90
24384;DHT22;12504;52.870;8.798;2022-10-31T09:11:59;12.90;99.90
24384;DHT22;12504;52.870;8.798;2022-10-31T09:14:44;13.00;99.90
24384;DHT22;12504;52.870;8.798;2022-10-31T09:17:24;13.00;99.90
24384;DHT22;12504;52.870;8.798;2022-10-31T09:20:10;13.20;99.90
24384;DHT22;12504;52.870;8.798;2022-10-31T09:22:37;13.20;99.90
24384;DHT22;12504;52.870;8.798;2022-10-31T09:25:03;13.20;99.90
24384;DHT22;12504;52.870;8.798;2022-10-31T09:27:28;13.30;99.90
24384;DHT22;12504;52.870;8.798;2022-10-31T09:29:56;13.20;99.90
24384;DHT22;12504;52.870;8.798;2022-10-31T09:32:21;13.20;99.90
24384;DHT22;12504;52.870;8.798;2022-10-31T09:34:47;13.30;99.90
24384;DHT22;12504;52.870;8.798;2022-10-31T09:37:18;13.30;99.90
24384;DHT22;12504;52.870;8.798;2022-10-31T09:39:44;13.40;99.90
24384;DHT22;12504;52.870;8.798;2022-10-31T09:44:53;13.40;99.90
24384;DHT22;12504;52.870;8.798;2022-10-31T09:50:21;13.60;99.90
24384;DHT22;12504;52.870;8.798;2022-10-31T09:52:51;13.60;99.90
24384;DHT22;12504;52.870;8.798;2022-10-31T09:55:21;13.60;99.90
24384;DHT22;12504;52.870;8.798;2022-10-31T09:57:48;13.70;99.90
24384;DHT22;12504;52.870;8.798;2022-10-31T10:00:15;13.70;99.90
24384;DHT22;12504;52.870;8.798;2022-10-31T10:03:06;13.70;99.90
24384;DHT22;12504;52.870;8.798;2022-10-31T10:05:43;13.70;99.90
24384;DHT22;12504;52.870;8.798;2022-10-31T10:08:19;13.60;99.90
24384;DHT22;12504;52.870;8.798;2022-10-31T10:24:30;14.30;99.90
24384;DHT22;12504;52.870;8.798;2022-10-31T10:27:01;14.50;99.90
24384;DHT22;12504;52.870;8.798;2022-10-31T10:32:04;15.00;99.90
24384;DHT22;12504;52.870;8.798;2022-10-31T10:34:33;15.10;99.90
24384;DHT22;12504;52.870;8.798;2022-10-31T10:39:27;15.50;99.90
24384;DHT22;12504;52.870;8.798;2022-10-31T10:41:58;15.50;99.90
24384;DHT22;12504;52.870;8.798;2022-10-31T10:44:43;15.70;99.90
24384;DHT22;12504;52.870;8.798;2022-10-31T10:47:33;15.70;99.90
24384;DHT22;12504;52.870;8.798;2022-10-31T10:50:10;15.70;99.90
24384;DHT22;12504;52.870;8.798;2022-10-31T11:00:26;16.10;99.90
24384;DHT22;12504;52.870;8.798;2022-10-31T11:02:53;16.20;99.90
24384;DHT22;12504;52.870;8.798;2022-10-31T11:05:29;16.30;99.90
24384;DHT22;12504;52.870;8.798;2022-10-31T11:07:55;16.30;99.90
24384;DHT22;12504;52.870;8.798;2022-10-31T11:10:21;16.40;99.90
24384;DHT22;12504;52.870;8.798;2022-10-31T11:15:28;16.50;99.90
24384;DHT22;12504;52.870;8.798;2022-10-31T11:17:55;16.40;99.90
24384;DHT22;12504;52.870;8.798;2022-10-31T11:22:59;16.50;99.90
24384;DHT22;12504;52.870;8.798;2022-10-31T11:25:26;16.80;99.90
24384;DHT22;12504;52.870;8.798;2022-10-31T11:27:58;17.10;99.90
24384;DHT22;12504;52.870;8.798;2022-10-31T11:30:24;17.40;99.90
24384;DHT22;12504;52.870;8.798;2022-10-31T11:32:50;17.60;99.90
24384;DHT22;12504;52.870;8.798;2022-10-31T11:35:18;17.70;99.90
24384;DHT22;12504;52.870;8.798;2022-10-31T11:37:45;17.70;99.90
24384;DHT22;12504;52.870;8.798;2022-10-31T11:40:18;17.70;99.90
24384;DHT22;12504;52.870;8.798;2022-10-31T11:42:44;18.20;99.90
24384;DHT22;12504;52.870;8.798;2022-10-31T11:45:15;18.90;99.90
24384;DHT22;12504;52.870;8.798;2022-10-31T11:47:44;19.50;99.90
24384;DHT22;12504;52.870;8.798;2022-10-31T11:50:14;20.20;99.90
24384;DHT22;12504;52.870;8.798;2022-10-31T11:52:43;21.10;99.90
24384;DHT22;12504;52.870;8.798;2022-10-31T11:57:44;21.50;99.90
24384;DHT22;12504;52.870;8.798;2022-10-31T12:00:47;21.20;99.90
24384;DHT22;12504;52.870;8.798;2022-10-31T12:03:26;21.20;99.90
24384;DHT22;12504;52.870;8.798;2022-10-31T12:10:59;20.60;99.90
24384;DHT22;12504;52.870;8.798;2022-10-31T13:26:38;15.90;99.90
24384;DHT22;12504;52.870;8.798;2022-10-31T13:29:15;15.80;99.90
24384;DHT22;12504;52.870;8.798;2022-10-31T13:31:43;15.50;99.90
24384;DHT22;12504;52.870;8.798;2022-10-31T13:34:17;15.40;99.90
24384;DHT22;12504;52.870;8.798;2022-10-31T13:36:45;15.30;99.90
24384;DHT22;12504;52.870;8.798;2022-10-31T13:44:28;15.30;99.90
24384;DHT22;12504;52.870;8.798;2022-10-31T13:46:56;15.40;99.90
24384;DHT22;12504;52.870;8.798;2022-10-31T13:54:34;15.50;99.90
24384;DHT22;12504;52.870;8.798;2022-10-31T13:57:00;15.40;99.90
24384;DHT22;12504;52.870;8.798;2022-10-31T13:59:27;15.40;99.90
24384;DHT22;12504;52.870;8.798;2022-10-31T14:04:37;15.10;99.90
24384;DHT22;12504;52.870;8.798;2022-10-31T14:07:07;15.00;99.90
24384;DHT22;12504;52.870;8.798;2022-10-31T14:12:34;14.90;99.90
24384;DHT22;12504;52.870;8.798;2022-10-31T14:14:52;14.80;99.90
24384;DHT22;12504;52.870;8.798;2022-10-31T14:22:45;14.30;99.90
24384;DHT22;12504;52.870;8.798;2022-10-31T14:28:19;14.10;99.90
24384;DHT22;12504;52.870;8.798;2022-10-31T14:30:55;13.90;99.90
24384;DHT22;12504;52.870;8.798;2022-10-31T14:33:21;13.80;99.90
24384;DHT22;12504;52.870;8.798;2022-10-31T14:35:52;13.70;99.90
24384;DHT22;12504;52.870;8.798;2022-10-31T14:38:25;13.70;99.90
24384;DHT22;12504;52.870;8.798;2022-10-31T14:46:31;13.70;99.90
24384;DHT22;12504;52.870;8.798;2022-10-31T14:51:36;13.70;99.90
24384;DHT22;12504;52.870;8.798;2022-10-31T14:54:02;13.70;99.90
24384;DHT22;12504;52.870;8.798;2022-10-31T14:56:31;13.70;99.90
24384;DHT22;12504;52.870;8.798;2022-10-31T14:58:58;13.70;99.90
24384;DHT22;12504;52.870;8.798;2022-10-31T15:01:29;13.70;99.90
24384;DHT22;12504;52.870;8.798;2022-10-31T15:04:38;13.60;99.90
24384;DHT22;12504;52.870;8.798;2022-10-31T15:06:45;13.60;99.90
24384;DHT22;12504;52.870;8.798;2022-10-31T15:11:47;13.60;99.90
24384;DHT22;12504;52.870;8.798;2022-10-31T15:14:29;13.60;99.90
24384;DHT22;12504;52.870;8.798;2022-10-31T15:16:56;13.60;99.90
24384;DHT22;12504;52.870;8.798;2022-10-31T15:19:23;13.60;99.90
24384;DHT22;12504;52.870;8.798;2022-10-31T15:21:50;13.70;99.90
24384;DHT22;12504;52.870;8.798;2022-10-31T15:24:16;13.70;99.90
24384;DHT22;12504;52.870;8.798;2022-10-31T15:26:44;13.70;99.90
24384;DHT22;12504;52.870;8.798;2022-10-31T15:29:24;13.70;99.90
24384;DHT22;12504;52.870;8.798;2022-10-31T15:31:53;13.70;99.90
24384;DHT22;12504;52.870;8.798;2022-10-31T15:37:04;13.60;99.90
24384;DHT22;12504;52.870;8.798;2022-10-31T15:39:33;13.70;99.90
24384;DHT22;12504;52.870;8.798;2022-10-31T15:41:59;13.70;99.90
24384;DHT22;12504;52.870;8.798;2022-10-31T15:44:28;13.60;99.90
24384;DHT22;12504;52.870;8.798;2022-10-31T15:46:56;13.60;99.90
24384;DHT22;12504;52.870;8.798;2022-10-31T15:51:54;13.60;99.90
24384;DHT22;12504;52.870;8.798;2022-10-31T15:54:20;13.60;99.90
24384;DHT22;12504;52.870;8.798;2022-10-31T15:56:46;13.50;99.90
24384;DHT22;12504;52.870;8.798;2022-10-31T15:59:16;13.50;99.90
24384;DHT22;12504;52.870;8.798;2022-10-31T16:01:55;13.50;99.90
24384;DHT22;12504;52.870;8.798;2022-10-31T16:04:23;13.40;99.90
24384;DHT22;12504;52.870;8.798;2022-10-31T16:06:59;13.40;99.90
24384;DHT22;12504;52.870;8.798;2022-10-31T16:09:25;13.40;99.90
24384;DHT22;12504;52.870;8.798;2022-10-31T16:11:51;13.40;99.90
24384;DHT22;12504;52.870;8.798;2022-10-31T16:14:18;13.30;99.90
24384;DHT22;12504;52.870;8.798;2022-10-31T16:16:50;13.30;99.90
24384;DHT22;12504;52.870;8.798;2022-10-31T16:19:27;13.30;99.90
24384;DHT22;12504;52.870;8.798;2022-10-31T16:21:54;13.30;99.90
24384;DHT22;12504;52.870;8.798;2022-10-31T16:24:25;13.30;99.90
24384;DHT22;12504;52.870;8.798;2022-10-31T16:26:52;13.20;99.90
24384;DHT22;12504;52.870;8.798;2022-10-31T16:29:24;13.20;99.90
24384;DHT22;12504;52.870;8.798;2022-10-31T16:31:50;13.20;99.90
24384;DHT22;12504;52.870;8.798;2022-10-31T16:34:22;13.20;99.90
24384;DHT22;12504;52.870;8.798;2022-10-31T16:36:48;13.20;99.90
24384;DHT22;12504;52.870;8.798;2022-10-31T16:39:13;13.20;99.90
24384;DHT22;12504;52.870;8.798;2022-10-31T16:41:40;13.20;99.90
24384;DHT22;12504;52.870;8.798;2022-10-31T16:44:13;13.20;99.90
24384;DHT22;12504;52.870;8.798;2022-10-31T16:46:40;13.20;99.90
24384;DHT22;12504;52.870;8.798;2022-10-31T16:49:08;13.20;99.90
24384;DHT22;12504;52.870;8.798;2022-10-31T16:51:33;13.20;99.90
24384;DHT22;12504;52.870;8.798;2022-10-31T16:53:59;13.10;99.90
24384;DHT22;12504;52.870;8.798;2022-10-31T16:56:28;13.20;99.90
24384;DHT22;12504;52.870;8.798;2022-10-31T16:58:55;13.10;99.90
24384;DHT22;12504;52.870;8.798;2022-10-31T17:01:21;13.10;99.90
24384;DHT22;12504;52.870;8.798;2022-10-31T17:03:48;13.10;99.90
24384;DHT22;12504;52.870;8.798;2022-10-31T17:06:13;13.20;99.90
24384;DHT22;12504;52.870;8.798;2022-10-31T17:08:39;13.20;99.90
24384;DHT22;12504;52.870;8.798;2022-10-31T17:11:05;13.20;99.90
24384;DHT22;12504;52.870;8.798;2022-10-31T17:13:34;13.10;99.90
24384;DHT22;12504;52.870;8.798;2022-10-31T17:16:00;13.20;99.90
24384;DHT22;12504;52.870;8.798;2022-10-31T17:18:26;13.10;99.90
24384;DHT22;12504;52.870;8.798;2022-10-31T17:20:55;13.10;99.90
24384;DHT22;12504;52.870;8.798;2022-10-31T17:23:23;13.10;99.90
24384;DHT22;12504;52.870;8.798;2022-10-31T17:25:49;13.10;99.90
24384;DHT22;12504;52.870;8.798;2022-10-31T17:28:14;13.00;99.90
24384;DHT22;12504;52.870;8.798;2022-10-31T17:30:40;12.90;99.90
24384;DHT22;12504;52.870;8.798;2022-10-31T17:33:14;12.90;99.90
24384;DHT22;12504;52.870;8.798;2022-10-31T17:35:40;12.90;99.90
24384;DHT22;12504;52.870;8.798;2022-10-31T17:38:06;12.90;99.90
24384;DHT22;12504;52.870;8.798;2022-10-31T17:40:32;12.90;99.90
24384;DHT22;12504;52.870;8.798;2022-10-31T17:42:58;12.80;99.90
24384;DHT22;12504;52.870;8.798;2022-10-31T17:45:24;12.80;99.90
24384;DHT22;12504;52.870;8.798;2022-10-31T17:47:54;12.80;99.90
24384;DHT22;12504;52.870;8.798;2022-10-31T17:50:21;12.80;99.90
24384;DHT22;12504;52.870;8.798;2022-10-31T17:52:47;12.80;99.90
24384;DHT22;12504;52.870;8.798;2022-10-31T17:55:13;12.80;99.90
24384;DHT22;12504;52.870;8.798;2022-10-31T17:57:39;12.70;99.90
24384;DHT22;12504;52.870;8.798;2022-10-31T18:00:05;12.70;99.90
24384;DHT22;12504;52.870;8.798;2022-10-31T18:02:32;12.60;99.90
24384;DHT22;12504;52.870;8.798;2022-10-31T18:04:57;12.60;99.90
24384;DHT22;12504;52.870;8.798;2022-10-31T18:07:23;12.50;99.90
24384;DHT22;12504;52.870;8.798;2022-10-31T18:09:49;12.50;99.90
24384;DHT22;12504;52.870;8.798;2022-10-31T18:12:14;12.40;99.90
24384;DHT22;12504;52.870;8.798;2022-10-31T18:14:40;12.40;99.90
24384;DHT22;12504;52.870;8.798;2022-10-31T18:17:06;12.40;99.90
24384;DHT22;12504;52.870;8.798;2022-10-31T18:19:32;12.40;99.90
24384;DHT22;12504;52.870;8.798;2022-10-31T18:21:58;12.40;99.90
24384;DHT22;12504;52.870;8.798;2022-10-31T18:24:24;12.40;99.90
24384;DHT22;12504;52.870;8.798;2022-10-31T18:26:49;12.40;99.90
24384;DHT22;12504;52.870;8.798;2022-10-31T18:29:15;12.40;99.90
24384;DHT22;12504;52.870;8.798;2022-10-31T18:31:44;12.40;99.90
24384;DHT22;12504;52.870;8.798;2022-10-31T18:34:13;12.50;99.90
24384;DHT22;12504;52.870;8.798;2022-10-31T18:36:39;12.50;99.90
24384;DHT22;12504;52.870;8.798;2022-10-31T18:39:04;12.50;99.90
24384;DHT22;12504;52.870;8.798;2022-10-31T18:41:31;12.50;99.90
24384;DHT22;12504;52.870;8.798;2022-10-31T18:43:57;12.50;99.90
24384;DHT22;12504;52.870;8.798;2022-10-31T18:46:24;12.50;99.90
24384;DHT22;12504;52.870;8.798;2022-10-31T18:48:50;12.50;99.90
24384;DHT22;12504;52.870;8.798;2022-10-31T18:51:15;12.60;99.90
24384;DHT22;12504;52.870;8.798;2022-10-31T18:53:44;12.60;99.90
24384;DHT22;12504;52.870;8.798;2022-10-31T18:56:13;12.60;99.90
24384;DHT22;12504;52.870;8.798;2022-10-31T18:58:39;12.60;99.90
24384;DHT22;12504;52.870;8.798;2022-10-31T19:01:08;12.60;99.90
24384;DHT22;12504;52.870;8.798;2022-10-31T19:03:34;12.60;99.90
24384;DHT22;12504;52.870;8.798;2022-10-31T19:06:00;12.60;99.90
24384;DHT22;12504;52.870;8.798;2022-10-31T19:08:25;12.60;99.90
24384;DHT22;12504;52.870;8.798;2022-10-31T19:10:51;12.60;99.90
24384;DHT22;12504;52.870;8.798;2022-10-31T19:13:16;12.60;99.90
24384;DHT22;12504;52.870;8.798;2022-10-31T19:15:42;12.60;99.90
24384;DHT22;12504;52.870;8.798;2022-10-31T19:18:08;12.60;99.90
24384;DHT22;12504;52.870;8.798;2022-10-31T19:20:36;12.60;99.90
24384;DHT22;12504;52.870;8.798;2022-10-31T19:23:01;12.60;99.90
24384;DHT22;12504;52.870;8.798;2022-10-31T19:25:27;12.70;99.90
24384;DHT22;12504;52.870;8.798;2022-10-31T19:27:53;12.60;99.90
24384;DHT22;12504;52.870;8.798;2022-10-31T19:30:18;12.60;99.90
24384;DHT22;12504;52.870;8.798;2022-10-31T19:32:45;12.60;99.90
24384;DHT22;12504;52.870;8.798;2022-10-31T19:35:11;12.60;99.90
24384;DHT22;12504;52.870;8.798;2022-10-31T19:37:37;12.50;99.90
24384;DHT22;12504;52.870;8.798;2022-10-31T19:40:05;12.50;99.90
24384;DHT22;12504;52.870;8.798;2022-10-31T19:42:31;12.50;99.90